Wednesday, January 17, 2018, 8:23 AM EST
Back to Local

KLBE, Latrobe / Westmorland

Location: Latrobe, PA, United States Lat: 40.283
Local Time: 8:23 AM EST (13:23 GMT) Lon: -79.4
Time Zone: US/Eastern Elev: 1184 ft

Show me the last for .
Show Coded

Time T Td Feel RH Dir Speed Gust Alt SLP Vis Weather Sky Remarks
2018-01-17 07:45 5 1 -6 84 270° 6 - 30.47 - 9 -SN OVC013 None
2018-01-17 06:45 7 1 0 77 270° 3 - 30.48 - 8 -SN OVC013 None
2018-01-17 05:55 7 1 -3 77 260° 6 - 30.47 - 10 OVC017 None
2018-01-17 05:35 7 1 -3 77 280° 6 - 30.46 - 10 OVC017 None
2018-01-17 05:15 5 1 -4 84 230° 5 - 30.46 - 10 -SN SCT015 OVC019 None
2018-01-17 04:55 7 1 -3 77 200° 6 - 30.46 - 10 -SN OVC015 None
2018-01-17 04:35 7 1 -3 77 200° 6 - 30.45 - 10 OVC013 None
2018-01-17 04:15 7 3 -2 84 190° 5 - 30.45 - 10 OVC015 None
2018-01-17 03:55 7 3 -6 84 220° 8 - 30.45 - 10 -SN OVC015 None
2018-01-17 03:35 9 5 -5 84 240° 9 - 30.45 - 10 OVC015 None
2018-01-17 03:15 10 7 0 84 220° 7 - 30.45 - 9 -SN OVC015 None
2018-01-17 02:55 10 7 0 84 260° 7 - 30.45 - 9 -SN OVC015 None
2018-01-17 02:35 10 7 1 84 280° 6 - 30.45 - 10 OVC015 None
2018-01-17 02:15 10 7 1 84 290° 6 - 30.44 - 9 OVC017 None
2018-01-17 01:55 10 7 0 84 280° 7 - 30.43 - 8 -SN OVC019 None
2018-01-17 01:35 10 7 2 84 300° 5 - 30.43 - 9 -SN OVC019 None
2018-01-17 01:15 12 7 2 78 300° 7 - 30.44 - 8 -SN OVC017 None
2018-01-17 00:55 12 9 1 85 290° 8 - 30.44 - 10 -SN OVC017 None
2018-01-17 00:35 14 9 5 78 290° 6 - 30.44 - 10 OVC017 None
2018-01-17 00:15 14 9 6 78 290° 5 - 30.44 - 10 BKN015 BKN023 OVC035 None
2018-01-16 23:55 14 9 5 78 270° 6 - 30.44 - 10 BKN023 OVC035 None
2018-01-16 23:35 14 10 6 85 260° 5 - 30.44 - 7 -SN BKN017 OVC022 None
2018-01-16 23:15 14 10 8 85 300° 3 - 30.44 - 5 -SN OVC017 None
2018-01-16 22:55 14 10 4 85 270° 7 - 30.44 - 5 -SN OVC017 None
2018-01-16 22:35 16 10 10 78 250° 3 - 30.44 - 8 BKN017 BKN026 OVC036 None
2018-01-16 22:15 16 10 - 78 - Calm - 30.43 - 8 FEW015 BKN024 OVC036 None
2018-01-16 21:50 16 10 4 78 280° 9 - 30.43 - 8 -SN BKN033 None
2018-01-16 20:50 16 12 4 85 270° 9 - 30.43 - 3 -SN BKN019 None
2018-01-16 19:50 18 14 6 85 270° 9 - 30.40 - 3 -SN BKN027 None
2018-01-16 18:50 19 18 9 92 270° 9 - 30.38 - 2 -SN BKN013 None
2018-01-16 17:50 23 21 15 92 240° 7 - 30.36 - 1 -SN BKN009 OVC012 None
2018-01-16 16:50 25 23 15 92 270° 9 - 30.34 - 1 -SN OVC005 None
2018-01-16 15:50 28 27 22 92 240° 6 - 30.32 - 1 -SN BKN009 OVC018 None
2018-01-16 14:50 28 27 25 92 230° 3 - 30.31 - 2 -SN SCT009 BKN020 OVC044 None
2018-01-16 13:53 28 27 25 92 220° 3 - 30.31 - 2 -SN BKN016 OVC024 None
2018-01-16 12:52 28 27 23 92 220° 5 - 30.33 - 2 -SN FEW010 SCT026 BKN047 None
2018-01-16 11:55 28 27 22 92 210° 6 - 30.36 - 2 -SN FEW009 SCT017 BKN024 None
2018-01-16 10:55 28 27 23 92 200° 5 - 30.37 - 2 -SN OVC024 None
2018-01-16 09:50 28 27 - 92 - Calm - 30.38 - 2 -SN FEW014 OVC024 None
2018-01-16 08:45 27 27 23 100 190° 3 - 30.36 - 2 -SN BR FEW011 SCT028 OVC050 None
2018-01-16 08:28 27 27 21 100 190° 5 - 30.36 - 2 -SN BR SCT013 BKN020 OVC028 None

Support USWX by starting your Amazon purchase here.